createdAt,value
2018-12-27T00:02:08.051Z,1.10
2018-12-27T00:04:48.999Z,1.00
2018-12-27T00:07:29.977Z,1.10
2018-12-27T00:10:10.696Z,1.10
2018-12-27T00:12:39.597Z,1.10
2018-12-27T00:15:08.541Z,1.10
2018-12-27T00:20:50.506Z,1.00
2018-12-27T00:23:31.827Z,1.00
2018-12-27T00:26:13.087Z,1.00
2018-12-27T00:28:53.971Z,1.00
2018-12-27T00:34:26.165Z,1.00
2018-12-27T00:37:06.857Z,1.00
2018-12-27T00:39:47.592Z,1.00
2018-12-27T00:42:28.469Z,1.00
2018-12-27T00:45:09.148Z,1.10
2018-12-27T00:47:53.937Z,1.10
2018-12-27T00:50:34.877Z,1.00
2018-12-27T00:53:03.942Z,1.00
2018-12-27T00:56:06.493Z,0.90
2018-12-27T00:58:34.716Z,0.90
2018-12-27T01:01:15.491Z,0.90
2018-12-27T01:03:56.258Z,1.00
2018-12-27T01:06:37.220Z,1.00
2018-12-27T01:09:06.383Z,1.00
2018-12-27T01:12:06.752Z,1.00
2018-12-27T01:14:37.503Z,1.00
2018-12-27T01:17:06.623Z,1.00
2018-12-27T01:20:08.817Z,1.10
2018-12-27T01:22:37.662Z,1.10
2018-12-27T01:25:06.731Z,1.10
2018-12-27T01:27:35.762Z,1.10
2018-12-27T01:30:36.002Z,1.10
2018-12-27T01:33:06.310Z,1.10
2018-12-27T01:35:47.418Z,1.10
2018-12-27T01:38:28.409Z,1.10
2018-12-27T01:41:09.450Z,1.10
2018-12-27T01:43:38.504Z,1.10
2018-12-27T01:46:41.091Z,1.10
2018-12-27T01:49:09.793Z,1.10
2018-12-27T01:51:50.614Z,1.20
2018-12-27T01:54:31.777Z,1.20
2018-12-27T01:57:12.341Z,1.20
2018-12-27T01:59:53.233Z,1.20
2018-12-27T02:02:33.958Z,1.10
2018-12-27T02:05:15.279Z,1.10
2018-12-27T02:11:01.410Z,1.10
2018-12-27T02:13:46.342Z,1.00
2018-12-27T02:16:27.723Z,1.00
2018-12-27T02:19:09.161Z,1.00
2018-12-27T02:21:50.326Z,1.00
2018-12-27T02:24:31.193Z,1.10
2018-12-27T02:27:11.920Z,1.00
2018-12-27T02:29:52.534Z,1.00
2018-12-27T02:32:33.296Z,1.00
2018-12-27T02:35:17.434Z,1.00
2018-12-27T02:37:58.494Z,1.20
2018-12-27T02:40:39.582Z,1.30
2018-12-27T02:43:08.605Z,1.30
2018-12-27T02:45:37.621Z,1.30
2018-12-27T02:48:40.854Z,1.30
2018-12-27T02:51:08.350Z,1.30
2018-12-27T02:53:48.986Z,1.30
2018-12-27T02:56:29.624Z,1.30
2018-12-27T02:59:10.742Z,1.40
2018-12-27T03:01:51.603Z,1.30
2018-12-27T03:04:30.904Z,1.20
2018-12-27T03:07:22.045Z,1.20
2018-12-27T03:10:03.330Z,1.20
2018-12-27T03:12:44.375Z,1.20
2018-12-27T03:15:25.353Z,1.20
2018-12-27T03:18:05.952Z,1.20
2018-12-27T03:20:35.010Z,1.20
2018-12-27T03:23:45.522Z,1.20
2018-12-27T03:26:24.959Z,1.30
2018-12-27T03:28:55.954Z,1.30
2018-12-27T03:31:37.024Z,1.30
2018-12-27T03:34:06.049Z,1.40
2018-12-27T03:37:06.265Z,1.40
2018-12-27T03:39:44.301Z,1.40
2018-12-27T03:42:25.170Z,1.40
2018-12-27T03:45:06.181Z,1.40
2018-12-27T03:47:35.197Z,1.40
2018-12-27T03:50:53.848Z,1.40
2018-12-27T03:53:06.560Z,1.40
2018-12-27T03:55:47.825Z,1.30
2018-12-27T03:58:28.758Z,1.30
2018-12-27T04:01:10.810Z,1.30
2018-12-27T04:03:51.985Z,1.30
2018-12-27T04:06:33.138Z,1.40
2018-12-27T04:09:13.916Z,1.40
2018-12-27T04:11:56.001Z,1.40
2018-12-27T04:14:36.833Z,1.40
2018-12-27T04:17:05.705Z,1.30
2018-12-27T04:19:34.578Z,1.40
2018-12-27T04:22:37.692Z,1.30
2018-12-27T04:25:08.613Z,1.30
2018-12-27T04:30:36.534Z,1.30
2018-12-27T04:33:08.350Z,1.30
2018-12-27T04:35:56.859Z,1.30
2018-12-27T04:38:45.268Z,1.30
2018-12-27T04:41:26.266Z,1.20
2018-12-27T04:44:06.889Z,1.30
2018-12-27T04:46:36.530Z,1.30
2018-12-27T04:49:05.464Z,1.30
2018-12-27T04:51:53.664Z,1.40
2018-12-27T04:54:41.921Z,1.40
2018-12-27T04:57:10.833Z,1.40
2018-12-27T04:59:51.870Z,1.40
2018-12-27T05:02:32.738Z,1.30
2018-12-27T05:05:13.787Z,1.30
2018-12-27T05:07:54.688Z,1.40
2018-12-27T05:10:36.580Z,1.40
2018-12-27T05:13:06.353Z,1.30
2018-12-27T05:15:35.230Z,1.30
2018-12-27T05:18:37.748Z,1.30
2018-12-27T05:21:06.569Z,1.30
2018-12-27T05:23:35.493Z,1.20
2018-12-27T05:26:35.313Z,1.20
2018-12-27T05:29:25.427Z,1.20
2018-12-27T05:31:56.605Z,1.40
2018-12-27T05:34:37.325Z,1.50
2018-12-27T05:37:06.297Z,1.50
2018-12-27T05:39:35.156Z,1.50
2018-12-27T05:42:04.097Z,1.50
2018-12-27T05:44:32.982Z,1.50
2018-12-27T05:51:10.513Z,1.40
2018-12-27T05:53:40.531Z,1.40
2018-12-27T05:56:09.413Z,1.40
2018-12-27T05:59:11.026Z,1.30
2018-12-27T06:01:39.905Z,1.40
2018-12-27T06:04:08.821Z,1.50
2018-12-27T06:07:10.340Z,1.50
2018-12-27T06:09:42.839Z,1.60
2018-12-27T06:12:11.749Z,1.60
2018-12-27T06:15:13.006Z,1.60
2018-12-27T06:18:03.879Z,1.60
2018-12-27T06:20:30.781Z,1.50
2018-12-27T06:23:19.022Z,1.60
2018-12-27T06:25:59.833Z,1.60
2018-12-27T06:28:41.140Z,1.50
2018-12-27T06:31:10.104Z,1.50
2018-12-27T06:33:58.273Z,1.40
2018-12-27T06:36:39.387Z,1.30
2018-12-27T06:39:20.610Z,1.20
2018-12-27T06:42:02.203Z,1.10
2018-12-27T06:48:02.582Z,1.10
2018-12-27T06:50:43.918Z,1.10
2018-12-27T06:53:25.362Z,1.10
2018-12-27T06:56:06.009Z,1.10
2018-12-27T06:58:37.823Z,1.10
2018-12-27T07:01:38.763Z,1.00
2018-12-27T07:04:07.681Z,1.00
2018-12-27T07:06:48.395Z,0.90
2018-12-27T07:09:29.086Z,0.80
2018-12-27T07:12:09.693Z,0.80
2018-12-27T07:14:50.256Z,0.70
2018-12-27T07:17:31.218Z,0.70
2018-12-27T07:20:12.404Z,0.70
2018-12-27T07:22:53.105Z,0.70
2018-12-27T07:25:34.621Z,0.70
2018-12-27T07:28:15.577Z,0.60
2018-12-27T07:30:56.794Z,0.60
2018-12-27T07:33:37.940Z,0.60
2018-12-27T07:36:18.654Z,0.50
2018-12-27T07:38:59.291Z,0.50
2018-12-27T07:41:40.018Z,0.50
2018-12-27T07:44:20.754Z,0.50
2018-12-27T07:47:01.436Z,0.40
2018-12-27T07:49:42.645Z,0.50
2018-12-27T07:52:23.505Z,0.60
2018-12-27T07:58:09.703Z,0.60
2018-12-27T08:00:50.553Z,0.70
2018-12-27T08:03:38.925Z,0.70
2018-12-27T08:06:19.867Z,0.80
2018-12-27T08:09:00.926Z,0.90
2018-12-27T08:11:42.122Z,1.10
2018-12-27T08:14:23.281Z,1.30
2018-12-27T08:17:04.346Z,1.70
2018-12-27T08:19:45.347Z,2.00
2018-12-27T08:22:26.049Z,2.50
2018-12-27T08:25:06.936Z,3.50
2018-12-27T08:27:48.137Z,4.50
2018-12-27T08:30:29.228Z,5.00
2018-12-27T08:33:09.770Z,5.60
2018-12-27T08:35:38.702Z,6.30
2018-12-27T08:38:40.836Z,6.10
2018-12-27T08:41:09.598Z,5.50
2018-12-27T08:43:38.479Z,5.20
2018-12-27T08:46:40.749Z,5.10
2018-12-27T08:49:28.343Z,5.20
2018-12-27T08:51:59.460Z,5.40
2018-12-27T08:54:41.202Z,5.30
2018-12-27T08:57:22.078Z,5.50
2018-12-27T09:00:03.322Z,6.20
2018-12-27T09:02:44.287Z,6.50
2018-12-27T09:05:25.566Z,6.70
2018-12-27T09:11:16.130Z,5.50
2018-12-27T09:13:56.770Z,4.50
2018-12-27T09:16:37.756Z,4.10
2018-12-27T09:19:18.708Z,3.90
2018-12-27T09:22:00.021Z,3.70
2018-12-27T09:24:41.340Z,3.50
2018-12-27T09:27:22.842Z,3.40
2018-12-27T09:30:03.941Z,3.30
2018-12-27T09:32:43.141Z,3.30
2018-12-27T09:35:12.033Z,3.30
2018-12-27T09:38:14.536Z,3.30
2018-12-27T09:40:43.441Z,3.30
2018-12-27T09:43:24.115Z,3.40
2018-12-27T09:46:05.088Z,3.40
2018-12-27T09:48:46.146Z,3.30
2018-12-27T09:51:26.847Z,3.10
2018-12-27T09:54:08.017Z,3.10
2018-12-27T09:56:48.768Z,3.10
2018-12-27T09:59:29.750Z,3.20
2018-12-27T10:02:10.288Z,3.20
2018-12-27T10:04:39.241Z,3.30
2018-12-27T10:07:41.391Z,3.40
2018-12-27T10:10:28.750Z,3.40
2018-12-27T10:13:00.363Z,3.40
2018-12-27T10:15:41.534Z,3.40
2018-12-27T10:18:22.952Z,3.60
2018-12-27T10:21:03.983Z,3.70
2018-12-27T10:23:45.230Z,3.70
2018-12-27T10:26:26.337Z,3.70
2018-12-27T10:29:07.674Z,3.70
2018-12-27T10:31:48.397Z,3.90
2018-12-27T10:34:29.202Z,3.90
2018-12-27T10:37:12.429Z,3.90
2018-12-27T10:39:41.424Z,4.30
2018-12-27T10:42:41.437Z,4.60
2018-12-27T10:48:19.898Z,4.90
2018-12-27T10:51:01.197Z,5.10
2018-12-27T10:53:42.010Z,5.20
2018-12-27T10:56:23.431Z,5.30
2018-12-27T10:59:04.353Z,5.40
2018-12-27T11:01:45.489Z,5.80
2018-12-27T11:04:26.436Z,6.30
2018-12-27T11:07:07.577Z,6.60
2018-12-27T11:09:48.938Z,7.00
2018-12-27T11:12:30.423Z,7.40
2018-12-27T11:15:11.113Z,6.70
2018-12-27T11:17:51.932Z,6.30
2018-12-27T11:20:31.077Z,6.40
2018-12-27T11:23:12.343Z,6.00
2018-12-27T11:25:53.319Z,5.80
2018-12-27T11:28:34.363Z,4.90
2018-12-27T11:31:15.629Z,4.20
2018-12-27T11:33:56.696Z,4.20
2018-12-27T11:36:37.785Z,4.20
2018-12-27T11:39:18.838Z,4.30
2018-12-27T11:41:59.672Z,4.40
2018-12-27T11:44:40.293Z,4.50
2018-12-27T11:47:09.176Z,4.60
2018-12-27T11:55:53.794Z,7.00
2018-12-27T11:58:22.739Z,8.60
2018-12-27T12:01:25.379Z,9.60
2018-12-27T12:03:54.174Z,10.10
2018-12-27T12:06:35.267Z,10.40
2018-12-27T12:09:16.015Z,9.40
2018-12-27T12:11:57.017Z,8.70
2018-12-27T12:14:37.964Z,9.10
2018-12-27T12:17:18.620Z,9.40
2018-12-27T12:19:59.587Z,9.30
2018-12-27T12:22:40.740Z,9.10
2018-12-27T12:25:22.171Z,8.60
2018-12-27T12:28:02.896Z,9.10
2018-12-27T12:30:44.310Z,9.00
2018-12-27T12:33:25.062Z,9.60
2018-12-27T12:36:10.674Z,9.90
2018-12-27T12:38:36.726Z,9.40
2018-12-27T12:41:05.654Z,9.20
2018-12-27T12:43:34.626Z,9.80
2018-12-27T12:46:36.742Z,10.30
2018-12-27T12:49:26.709Z,10.30
2018-12-27T12:51:55.513Z,10.40
2018-12-27T12:54:36.543Z,10.50
2018-12-27T12:57:05.527Z,10.60
2018-12-27T12:59:34.427Z,9.50
2018-12-27T13:07:58.401Z,9.60
2018-12-27T13:10:39.577Z,9.60
2018-12-27T13:13:20.313Z,9.70
2018-12-27T13:16:01.370Z,9.90
2018-12-27T13:18:47.241Z,10.20
2018-12-27T13:21:24.595Z,8.50
2018-12-27T13:24:05.243Z,7.70
2018-12-27T13:26:34.217Z,6.70
2018-12-27T13:29:22.410Z,6.30
2018-12-27T13:32:03.110Z,6.40
2018-12-27T13:34:44.438Z,6.10
2018-12-27T13:37:25.233Z,6.10
2018-12-27T13:40:05.885Z,6.30
2018-12-27T13:42:34.806Z,6.20
2018-12-27T13:45:34.537Z,6.10
2018-12-27T13:48:05.969Z,6.10
2018-12-27T13:50:46.896Z,5.60
2018-12-27T13:53:28.687Z,5.20
2018-12-27T13:56:10.471Z,5.60
2018-12-27T13:58:51.363Z,5.90
2018-12-27T14:01:32.100Z,6.30
2018-12-27T14:04:12.791Z,6.50
2018-12-27T14:06:53.580Z,6.20
2018-12-27T14:09:34.553Z,6.10
2018-12-27T14:12:15.959Z,6.10
2018-12-27T14:14:56.711Z,5.60
2018-12-27T14:17:37.865Z,5.10
2018-12-27T14:22:36.053Z,4.70
2018-12-27T14:25:05.062Z,4.40
2018-12-27T14:28:05.010Z,4.20
2018-12-27T14:30:36.339Z,4.10
2018-12-27T14:33:17.365Z,4.00
2018-12-27T14:35:58.820Z,3.90
2018-12-27T14:38:39.773Z,3.80
2018-12-27T14:41:20.724Z,3.80
2018-12-27T14:44:01.829Z,3.80
2018-12-27T14:46:42.708Z,3.70
2018-12-27T14:49:23.526Z,3.60
2018-12-27T14:52:04.198Z,3.50
2018-12-27T14:54:45.330Z,3.40
2018-12-27T14:57:26.398Z,3.30
2018-12-27T15:00:07.365Z,3.20
2018-12-27T15:02:36.340Z,3.10
2018-12-27T15:05:36.385Z,2.90
2018-12-27T15:08:07.270Z,2.80
2018-12-27T15:10:48.749Z,2.60
2018-12-27T15:13:29.810Z,2.40
2018-12-27T15:16:11.250Z,2.20
2018-12-27T15:18:51.866Z,2.10
2018-12-27T15:21:33.205Z,2.00
2018-12-27T15:27:25.198Z,1.80
2018-12-27T15:30:05.834Z,1.70
2018-12-27T15:32:46.733Z,1.60
2018-12-27T15:35:28.036Z,1.60
2018-12-27T15:38:09.118Z,1.50
2018-12-27T15:40:51.767Z,1.40
2018-12-27T15:43:32.630Z,1.40
2018-12-27T15:46:13.660Z,1.30
2018-12-27T15:48:54.595Z,1.10
2018-12-27T15:51:35.472Z,1.00
2018-12-27T15:57:21.326Z,0.90
2018-12-27T16:00:02.301Z,0.80
2018-12-27T16:02:43.697Z,0.70
2018-12-27T16:05:25.032Z,0.60
2018-12-27T16:08:05.955Z,0.70
2018-12-27T16:10:35.349Z,0.60
2018-12-27T16:13:35.439Z,0.50
2018-12-27T16:16:06.994Z,0.50
2018-12-27T16:18:47.594Z,0.60
2018-12-27T16:21:28.561Z,0.50
2018-12-27T16:24:09.879Z,0.50
2018-12-27T16:26:50.934Z,0.40
2018-12-27T16:29:32.343Z,0.40
2018-12-27T16:32:17.817Z,0.40
2018-12-27T16:34:58.688Z,0.30
2018-12-27T16:37:39.603Z,0.40
2018-12-27T16:40:09.151Z,0.40
2018-12-27T16:45:43.802Z,0.50
2018-12-27T16:48:24.890Z,0.50
2018-12-27T16:51:05.772Z,0.40
2018-12-27T16:53:48.270Z,0.30
2018-12-27T16:56:29.118Z,0.30
2018-12-27T17:02:07.565Z,0.30
2018-12-27T17:05:09.749Z,0.30
2018-12-27T17:07:38.626Z,0.20
2018-12-27T17:10:19.971Z,0.20
2018-12-27T17:13:00.692Z,0.30
2018-12-27T17:15:42.154Z,0.30
2018-12-27T17:18:11.098Z,0.30
2018-12-27T17:21:13.345Z,0.30
2018-12-27T17:23:43.018Z,0.30
2018-12-27T17:26:24.265Z,0.20
2018-12-27T17:29:05.137Z,0.10
2018-12-27T17:31:34.012Z,0.10
2018-12-27T17:34:34.464Z,0.00
2018-12-27T17:37:12.390Z,0.00
2018-12-27T17:39:53.604Z,-0.10
2018-12-27T17:45:06.051Z,0.00
2018-12-27T17:47:35.106Z,0.10
2018-12-27T17:50:37.522Z,0.10
2018-12-27T17:59:07.835Z,0.10
2018-12-27T18:01:55.996Z,0.20
2018-12-27T18:07:49.366Z,0.20
2018-12-27T18:16:54.964Z,0.30
2018-12-27T18:19:35.667Z,0.30
2018-12-27T18:22:16.482Z,0.30
2018-12-27T18:24:57.388Z,0.20
2018-12-27T18:27:39.078Z,0.30
2018-12-27T18:30:10.165Z,0.20
2018-12-27T18:35:50.627Z,0.20
2018-12-27T18:38:32.230Z,0.30
2018-12-27T18:41:13.768Z,0.20
2018-12-27T18:43:54.745Z,0.20
2018-12-27T18:46:35.531Z,0.20
2018-12-27T18:49:04.691Z,0.10
2018-12-27T18:57:35.717Z,0.00
2018-12-27T19:00:07.636Z,-0.10
2018-12-27T19:02:41.969Z,-0.10
2018-12-27T19:05:08.233Z,-0.10
2018-12-27T19:08:14.202Z,-0.10
2018-12-27T19:10:39.399Z,-0.10
2018-12-27T19:13:20.300Z,-0.10
2018-12-27T19:16:01.422Z,-0.10
2018-12-27T19:18:42.370Z,0.00
2018-12-27T19:21:23.930Z,0.10
2018-12-27T19:24:05.212Z,0.20
2018-12-27T19:26:46.510Z,0.20
2018-12-27T19:32:40.648Z,0.20
2018-12-27T19:35:21.527Z,0.20
2018-12-27T19:38:02.761Z,0.10
2018-12-27T19:40:44.160Z,0.10
2018-12-27T19:43:26.059Z,0.10
2018-12-27T19:46:07.274Z,0.10
2018-12-27T19:48:49.008Z,0.20
2018-12-27T19:51:30.732Z,0.30
2018-12-27T19:54:11.972Z,0.40
2018-12-27T19:57:42.543Z,0.30
2018-12-27T19:59:55.485Z,0.30
2018-12-27T20:02:36.347Z,0.30
2018-12-27T20:05:17.088Z,0.30
2018-12-27T20:07:59.491Z,0.30
2018-12-27T20:10:40.450Z,0.40
2018-12-27T20:13:09.704Z,0.40
2018-12-27T20:18:47.261Z,0.30
2018-12-27T20:24:34.050Z,0.40
2018-12-27T20:27:15.334Z,0.40
2018-12-27T20:29:57.979Z,0.30
2018-12-27T20:32:38.953Z,0.30
2018-12-27T20:35:09.767Z,0.40
2018-12-27T20:41:18.475Z,0.50
2018-12-27T20:44:00.155Z,0.60
2018-12-27T20:52:57.382Z,0.70
2018-12-27T20:55:36.983Z,0.60
2018-12-27T20:58:06.117Z,0.50
2018-12-27T21:00:35.817Z,0.50
2018-12-27T21:03:05.039Z,0.40
2018-12-27T21:06:05.411Z,0.40
2018-12-27T21:08:36.306Z,0.30
2018-12-27T21:11:22.685Z,0.20
2018-12-27T21:17:08.963Z,0.20
2018-12-27T21:19:51.843Z,0.20
2018-12-27T21:22:33.183Z,0.10
2018-12-27T21:25:14.802Z,0.10
2018-12-27T21:27:55.622Z,0.00
2018-12-27T21:30:36.924Z,0.00
2018-12-27T21:33:06.278Z,-0.10
2018-12-27T21:39:10.090Z,-0.20
2018-12-27T21:41:38.470Z,-0.20
2018-12-27T21:44:07.787Z,-0.30
2018-12-27T21:47:15.260Z,-0.30
2018-12-27T21:49:56.415Z,-0.40
2018-12-27T21:52:37.633Z,-0.40
2018-12-27T21:55:06.941Z,-0.50
2018-12-27T21:57:36.238Z,-0.50
2018-12-27T22:00:08.360Z,-0.50
2018-12-27T22:02:37.450Z,-0.50
2018-12-27T22:05:06.777Z,-0.50
2018-12-27T22:07:35.931Z,-0.40
2018-12-27T22:10:06.978Z,-0.40
2018-12-27T22:12:37.151Z,-0.40
2018-12-27T22:15:06.525Z,-0.60
2018-12-27T22:17:35.960Z,-0.60
2018-12-27T22:20:38.072Z,-0.70
2018-12-27T22:23:07.055Z,-0.70
2018-12-27T22:25:36.171Z,-0.80
2018-12-27T22:28:05.278Z,-0.70
2018-12-27T22:33:41.275Z,-0.60
2018-12-27T22:36:10.426Z,-0.60
2018-12-27T22:39:12.937Z,-0.60
2018-12-27T22:42:12.269Z,-0.60
2018-12-27T22:44:53.321Z,-0.70
2018-12-27T22:51:01.394Z,-0.60
2018-12-27T22:53:42.872Z,-0.60
2018-12-27T22:56:23.620Z,-0.60
2018-12-27T22:59:02.991Z,-0.60
2018-12-27T23:01:44.134Z,-0.70
2018-12-27T23:04:25.374Z,-0.70
2018-12-27T23:07:06.892Z,-0.80
2018-12-27T23:09:48.369Z,-0.80
2018-12-27T23:12:29.115Z,-0.80
2018-12-27T23:18:01.513Z,-0.60
2018-12-27T23:20:42.836Z,-0.50
2018-12-27T23:23:11.817Z,-0.60
2018-12-27T23:32:13.143Z,-0.70
2018-12-27T23:34:54.191Z,-0.70
2018-12-27T23:37:35.066Z,-0.80
2018-12-27T23:40:16.130Z,-0.60
2018-12-27T23:42:56.934Z,-0.60
2018-12-27T23:45:37.671Z,-0.60
2018-12-27T23:48:06.583Z,-0.70
2018-12-27T23:50:35.590Z,-0.70
2018-12-27T23:53:46.512Z,-0.70
2018-12-27T23:56:06.333Z,-0.60
2018-12-27T23:58:35.289Z,-0.50
